createdAt,value
2022-08-27T00:00:36.828Z,92.43
2022-08-27T00:01:36.586Z,92.49
2022-08-27T00:02:36.525Z,92.23
2022-08-27T00:03:36.515Z,92.49
2022-08-27T00:04:36.562Z,92.49
2022-08-27T00:05:36.503Z,92.53
2022-08-27T00:06:36.762Z,91.93
2022-08-27T00:07:36.482Z,92.23
2022-08-27T00:08:36.464Z,92.03
2022-08-27T00:09:36.459Z,91.93
2022-08-27T00:10:36.442Z,92.68
2022-08-27T00:11:36.456Z,92.53
2022-08-27T00:12:36.426Z,92.73
2022-08-27T00:13:36.453Z,92.33
2022-08-27T00:14:36.403Z,92.63
2022-08-27T00:15:36.427Z,93.33
2022-08-27T00:16:36.443Z,93.23
2022-08-27T00:17:36.374Z,92.63
2022-08-27T00:18:36.361Z,92.53
2022-08-27T00:19:36.364Z,92.33
2022-08-27T00:20:36.349Z,92.63
2022-08-27T00:21:36.353Z,92.43
2022-08-27T00:22:36.329Z,92.53
2022-08-27T00:23:36.325Z,92.93
2022-08-27T00:24:36.309Z,92.63
2022-08-27T00:25:37.305Z,92.63
2022-08-27T00:26:40.173Z,92.63
2022-08-27T00:27:37.282Z,92.73
2022-08-27T00:28:36.454Z,92.63
2022-08-27T00:29:36.260Z,92.13
2022-08-27T00:30:36.259Z,92.43
2022-08-27T00:31:36.341Z,92.83
2022-08-27T00:32:36.229Z,92.89
2022-08-27T00:33:36.222Z,92.38
2022-08-27T00:34:36.210Z,92.73
2022-08-27T00:35:36.206Z,92.83
2022-08-27T00:36:36.200Z,93.09
2022-08-27T00:37:36.177Z,93.03
2022-08-27T00:38:36.170Z,92.58
2022-08-27T00:39:36.163Z,92.69
2022-08-27T00:40:36.189Z,92.49
2022-08-27T00:41:36.179Z,92.69
2022-08-27T00:42:36.129Z,92.89
2022-08-27T00:43:36.119Z,93.39
2022-08-27T00:44:36.105Z,93.24
2022-08-27T00:45:36.119Z,92.79
2022-08-27T00:46:36.126Z,92.29
2022-08-27T00:47:36.086Z,91.99
2022-08-27T00:48:36.064Z,92.29
2022-08-27T00:49:36.065Z,92.38
2022-08-27T00:50:36.046Z,92.18
2022-08-27T00:51:36.036Z,92.08
2022-08-27T00:52:36.041Z,92.49
2022-08-27T00:53:36.017Z,92.38
2022-08-27T00:54:36.011Z,92.58
2022-08-27T00:55:35.993Z,92.69
2022-08-27T00:56:36.120Z,92.69
2022-08-27T00:57:35.996Z,92.58
2022-08-27T00:58:35.971Z,92.29
2022-08-27T00:59:35.960Z,92.83
2022-08-27T01:00:35.983Z,92.79
2022-08-27T01:01:36.073Z,92.73
2022-08-27T01:02:36.023Z,93.59
2022-08-27T01:03:35.923Z,93.49
2022-08-27T01:04:35.916Z,93.49
2022-08-27T01:05:35.904Z,93.59
2022-08-27T01:06:35.896Z,93.49
2022-08-27T01:07:35.894Z,93.49
2022-08-27T01:08:35.875Z,92.58
2022-08-27T01:09:35.862Z,92.89
2022-08-27T01:10:35.861Z,92.69
2022-08-27T01:11:35.853Z,92.89
2022-08-27T01:12:36.054Z,93.19
2022-08-27T01:13:54.050Z,93.09
2022-08-27T01:14:36.824Z,93.39
2022-08-27T01:15:35.814Z,93.35
2022-08-27T01:16:35.877Z,93.39
2022-08-27T01:17:35.797Z,93.35
2022-08-27T01:18:35.801Z,93.44
2022-08-27T01:19:35.771Z,93.39
2022-08-27T01:20:35.767Z,93.55
2022-08-27T01:21:35.867Z,93.44
2022-08-27T01:22:35.768Z,93.24
2022-08-27T01:23:35.737Z,93.44
2022-08-27T01:24:35.841Z,93.15
2022-08-27T01:25:35.717Z,92.94
2022-08-27T01:26:35.710Z,93.04
2022-08-27T01:27:35.720Z,92.44
2022-08-27T01:28:37.555Z,92.14
2022-08-27T01:29:35.680Z,92.24
2022-08-27T01:30:35.668Z,92.65
2022-08-27T01:31:35.689Z,92.65
2022-08-27T01:32:35.691Z,93.24
2022-08-27T01:33:35.637Z,92.38
2022-08-27T01:34:35.634Z,92.54
2022-08-27T01:35:35.622Z,92.94
2022-08-27T01:36:35.611Z,92.54
2022-08-27T01:37:35.617Z,93.15
2022-08-27T01:38:35.591Z,93.04
2022-08-27T01:39:35.577Z,92.99
2022-08-27T01:40:35.609Z,92.89
2022-08-27T01:41:35.558Z,93.39
2022-08-27T01:42:35.559Z,93.59
2022-08-27T01:43:35.729Z,93.69
2022-08-27T01:44:35.526Z,93.99
2022-08-27T01:45:35.522Z,92.99
2022-08-27T01:46:35.528Z,93.49
2022-08-27T01:47:35.515Z,92.99
2022-08-27T01:48:35.724Z,93.29
2022-08-27T01:49:35.490Z,93.59
2022-08-27T01:50:35.480Z,93.09
2022-08-27T01:51:35.463Z,93.29
2022-08-27T01:52:35.473Z,93.79
2022-08-27T01:53:35.447Z,93.49
2022-08-27T01:54:35.436Z,92.99
2022-08-27T01:55:35.421Z,93.59
2022-08-27T01:56:35.416Z,93.29
2022-08-27T01:57:35.416Z,92.99
2022-08-27T01:58:35.402Z,92.44
2022-08-27T01:59:39.668Z,92.69
2022-08-27T02:00:35.409Z,93.15
2022-08-27T02:01:35.533Z,92.65
2022-08-27T02:02:35.351Z,92.49
2022-08-27T02:03:35.342Z,92.44
2022-08-27T02:04:35.334Z,92.54
2022-08-27T02:05:43.814Z,92.34
2022-08-27T02:06:36.330Z,92.65
2022-08-27T02:07:35.306Z,92.24
2022-08-27T02:08:35.301Z,92.34
2022-08-27T02:09:35.287Z,92.54
2022-08-27T02:10:35.281Z,92.44
2022-08-27T02:11:35.277Z,91.94
2022-08-27T02:12:36.258Z,91.54
2022-08-27T02:13:35.244Z,91.84
2022-08-27T02:14:35.238Z,91.74
2022-08-27T02:15:35.231Z,91.94
2022-08-27T02:16:35.285Z,91.88
2022-08-27T02:17:36.381Z,92.04
2022-08-27T02:18:35.236Z,92.08
2022-08-27T02:19:35.191Z,91.99
2022-08-27T02:20:35.188Z,92.49
2022-08-27T02:21:35.182Z,92.99
2022-08-27T02:22:35.165Z,92.38
2022-08-27T02:23:35.153Z,92.58
2022-08-27T02:24:35.145Z,92.73
2022-08-27T02:25:35.130Z,92.83
2022-08-27T02:26:35.138Z,92.89
2022-08-27T02:27:35.110Z,93.09
2022-08-27T02:28:35.104Z,92.43
2022-08-27T02:29:35.094Z,92.79
2022-08-27T02:30:35.091Z,92.73
2022-08-27T02:31:35.122Z,92.89
2022-08-27T02:32:35.063Z,93.03
2022-08-27T02:33:35.051Z,93.43
2022-08-27T02:34:35.046Z,93.33
2022-08-27T02:35:35.263Z,93.43
2022-08-27T02:36:35.040Z,93.23
2022-08-27T02:37:35.012Z,93.13
2022-08-27T02:38:35.007Z,93.54
2022-08-27T02:39:34.995Z,93.63
2022-08-27T02:40:35.054Z,93.43
2022-08-27T02:41:34.991Z,93.13
2022-08-27T02:42:34.967Z,93.54
2022-08-27T02:43:34.955Z,93.43
2022-08-27T02:44:34.947Z,93.03
2022-08-27T02:45:35.527Z,93.33
2022-08-27T02:46:35.169Z,93.23
2022-08-27T02:47:34.920Z,93.43
2022-08-27T02:48:34.912Z,92.93
2022-08-27T02:49:34.893Z,92.73
2022-08-27T02:50:34.891Z,93.13
2022-08-27T02:51:34.890Z,92.93
2022-08-27T02:52:34.880Z,92.53
2022-08-27T02:53:34.858Z,92.69
2022-08-27T02:54:34.853Z,92.99
2022-08-27T02:55:34.843Z,92.73
2022-08-27T02:56:34.845Z,92.89
2022-08-27T02:57:36.625Z,92.49
2022-08-27T02:58:34.833Z,92.58
2022-08-27T02:59:34.799Z,92.69
2022-08-27T03:00:34.794Z,92.08
2022-08-27T03:01:34.865Z,91.78
2022-08-27T03:02:34.915Z,91.72
2022-08-27T03:03:34.763Z,92.13
2022-08-27T03:04:34.957Z,91.99
2022-08-27T03:05:34.744Z,91.88
2022-08-27T03:06:34.750Z,91.68
2022-08-27T03:07:34.953Z,91.99
2022-08-27T03:08:52.018Z,91.58
2022-08-27T03:09:35.734Z,91.78
2022-08-27T03:10:34.696Z,91.88
2022-08-27T03:11:34.699Z,91.84
2022-08-27T03:12:34.880Z,91.68
2022-08-27T03:13:34.666Z,92.04
2022-08-27T03:14:34.798Z,91.84
2022-08-27T03:15:34.649Z,91.34
2022-08-27T03:16:34.657Z,92.04
2022-08-27T03:17:34.632Z,90.98
2022-08-27T03:18:34.625Z,91.03
2022-08-27T03:19:34.612Z,91.14
2022-08-27T03:20:34.604Z,91.44
2022-08-27T03:21:34.609Z,91.88
2022-08-27T03:22:34.588Z,91.58
2022-08-27T03:23:34.782Z,91.99
2022-08-27T03:24:34.567Z,91.99
2022-08-27T03:25:34.639Z,92.49
2022-08-27T03:26:34.562Z,92.53
2022-08-27T03:27:34.531Z,92.63
2022-08-27T03:28:34.527Z,92.83
2022-08-27T03:29:34.515Z,92.43
2022-08-27T03:30:34.507Z,93.13
2022-08-27T03:31:34.535Z,92.73
2022-08-27T03:32:34.491Z,92.43
2022-08-27T03:33:34.473Z,92.53
2022-08-27T03:34:34.461Z,92.63
2022-08-27T03:35:34.466Z,92.18
2022-08-27T03:36:34.465Z,92.49
2022-08-27T03:37:34.437Z,91.99
2022-08-27T03:38:34.432Z,91.93
2022-08-27T03:39:34.415Z,91.68
2022-08-27T03:40:34.675Z,91.88
2022-08-27T03:41:45.456Z,91.88
2022-08-27T03:42:35.390Z,91.88
2022-08-27T03:43:34.388Z,91.99
2022-08-27T03:44:34.533Z,90.88
2022-08-27T03:45:48.440Z,91.18
2022-08-27T03:46:35.385Z,90.88
2022-08-27T03:47:34.341Z,90.28
2022-08-27T03:48:34.331Z,90.68
2022-08-27T03:49:34.315Z,90.68
2022-08-27T03:50:34.313Z,90.64
2022-08-27T03:51:34.315Z,90.53
2022-08-27T03:52:34.293Z,90.13
2022-08-27T03:53:34.284Z,90.13
2022-08-27T03:54:34.277Z,90.17
2022-08-27T03:55:34.258Z,90.58
2022-08-27T03:56:34.377Z,90.88
2022-08-27T03:57:34.244Z,90.88
2022-08-27T03:58:34.255Z,90.98
2022-08-27T03:59:34.226Z,90.64
2022-08-27T04:00:34.220Z,90.78
2022-08-27T04:01:34.339Z,90.72
2022-08-27T04:02:34.222Z,90.42
2022-08-27T04:03:34.185Z,91.02
2022-08-27T04:04:34.179Z,91.22
2022-08-27T04:05:34.168Z,90.62
2022-08-27T04:06:34.356Z,91.02
2022-08-27T04:07:34.161Z,90.42
2022-08-27T04:08:34.138Z,90.92
2022-08-27T04:09:34.128Z,90.92
2022-08-27T04:10:34.980Z,90.92
2022-08-27T04:11:34.209Z,91.06
2022-08-27T04:12:34.112Z,90.46
2022-08-27T04:13:34.089Z,91.27
2022-08-27T04:14:34.140Z,91.37
2022-08-27T04:15:34.066Z,92.17
2022-08-27T04:16:34.083Z,92.17
2022-08-27T04:17:34.061Z,92.27
2022-08-27T04:18:34.035Z,91.37
2022-08-27T04:19:34.023Z,92.07
2022-08-27T04:20:35.696Z,92.07
2022-08-27T04:21:34.043Z,91.87
2022-08-27T04:22:34.011Z,91.97
2022-08-27T04:23:34.204Z,92.17
2022-08-27T04:24:33.975Z,91.97
2022-08-27T04:25:33.966Z,91.57
2022-08-27T04:26:33.960Z,91.13
2022-08-27T04:27:33.962Z,91.02
2022-08-27T04:28:38.246Z,90.72
2022-08-27T04:29:33.941Z,90.42
2022-08-27T04:30:33.924Z,90.46
2022-08-27T04:31:33.942Z,90.46
2022-08-27T04:32:33.921Z,91.06
2022-08-27T04:33:33.890Z,91.37
2022-08-27T04:34:33.878Z,91.37
2022-08-27T04:35:33.871Z,92.17
2022-08-27T04:36:33.865Z,91.97
2022-08-27T04:37:33.867Z,91.87
2022-08-27T04:38:33.847Z,91.97
2022-08-27T04:39:33.830Z,91.97
2022-08-27T04:40:33.937Z,91.87
2022-08-27T04:41:33.810Z,92.02
2022-08-27T04:42:33.825Z,92.32
2022-08-27T04:43:33.798Z,92.52
2022-08-27T04:44:33.793Z,92.92
2022-08-27T04:45:33.811Z,92.37
2022-08-27T04:46:33.865Z,92.37
2022-08-27T04:47:33.780Z,92.02
2022-08-27T04:48:33.756Z,92.37
2022-08-27T04:49:33.757Z,92.22
2022-08-27T04:50:33.728Z,92.32
2022-08-27T04:51:33.720Z,92.37
2022-08-27T04:52:33.725Z,92.07
2022-08-27T04:53:34.699Z,92.07
2022-08-27T04:54:33.693Z,92.17
2022-08-27T04:55:33.753Z,91.87
2022-08-27T04:56:33.679Z,91.97
2022-08-27T04:57:33.675Z,92.27
2022-08-27T04:58:33.650Z,92.07
2022-08-27T04:59:33.643Z,91.77
2022-08-27T05:00:33.851Z,91.77
2022-08-27T05:01:33.673Z,92.17
2022-08-27T05:02:33.621Z,90.77
2022-08-27T05:03:33.601Z,91.32
2022-08-27T05:04:33.879Z,91.32
2022-08-27T05:05:33.621Z,91.42
2022-08-27T05:06:33.568Z,90.62
2022-08-27T05:07:33.573Z,90.32
2022-08-27T05:08:33.550Z,90.22
2022-08-27T05:09:33.536Z,90.62
2022-08-27T05:10:33.533Z,90.52
2022-08-27T05:11:33.525Z,90.52
2022-08-27T05:12:33.529Z,90.72
2022-08-27T05:13:33.515Z,90.62
2022-08-27T05:14:33.505Z,90.42
2022-08-27T05:15:33.563Z,90.42
2022-08-27T05:16:33.482Z,90.42
2022-08-27T05:17:33.477Z,90.72
2022-08-27T05:18:37.613Z,90.22
2022-08-27T05:19:34.448Z,90.32
2022-08-27T05:20:33.541Z,90.32
2022-08-27T05:21:33.443Z,90.22
2022-08-27T05:22:33.431Z,90.22
2022-08-27T05:23:33.416Z,90.62
2022-08-27T05:24:33.396Z,90.32
2022-08-27T05:25:33.431Z,90.22
2022-08-27T05:26:33.564Z,89.72
2022-08-27T05:27:33.372Z,90.02
2022-08-27T05:28:33.375Z,90.32
2022-08-27T05:29:33.355Z,89.82
2022-08-27T05:30:33.347Z,89.92
2022-08-27T05:31:33.381Z,89.72
2022-08-27T05:32:33.334Z,89.86
2022-08-27T05:33:33.319Z,90.26
2022-08-27T05:34:33.313Z,90.72
2022-08-27T05:35:33.293Z,90.12
2022-08-27T05:36:33.283Z,90.12
2022-08-27T05:37:33.291Z,90.66
2022-08-27T05:38:33.263Z,90.66
2022-08-27T05:39:33.262Z,90.66
2022-08-27T05:40:33.267Z,90.82
2022-08-27T05:41:34.170Z,90.62
2022-08-27T05:42:33.241Z,90.52
2022-08-27T05:43:33.462Z,90.26
2022-08-27T05:44:41.553Z,90.77
2022-08-27T05:45:34.201Z,90.46
2022-08-27T05:46:33.250Z,90.42
2022-08-27T05:47:33.200Z,90.42
2022-08-27T05:48:33.172Z,90.26
2022-08-27T05:49:33.167Z,90.36
2022-08-27T05:50:33.151Z,90.36
2022-08-27T05:51:33.142Z,90.36
2022-08-27T05:52:33.129Z,90.36
2022-08-27T05:53:33.140Z,90.97
2022-08-27T05:54:33.116Z,90.86
2022-08-27T05:55:33.328Z,91.57
2022-08-27T05:56:33.095Z,90.77
2022-08-27T05:57:33.089Z,91.27
2022-08-27T05:58:33.090Z,91.06
2022-08-27T05:59:34.939Z,90.97
2022-08-27T06:00:33.058Z,90.66
2022-08-27T06:01:33.054Z,90.66
2022-08-27T06:02:33.084Z,90.86
2022-08-27T06:03:33.285Z,90.62
2022-08-27T06:04:33.037Z,90.82
2022-08-27T06:05:33.043Z,90.52
2022-08-27T06:06:33.004Z,90.26
2022-08-27T06:07:32.994Z,90.82
2022-08-27T06:08:32.990Z,90.52
2022-08-27T06:09:32.968Z,90.42
2022-08-27T06:10:32.956Z,90.82
2022-08-27T06:11:32.955Z,90.32
2022-08-27T06:12:32.941Z,90.56
2022-08-27T06:13:33.211Z,90.62
2022-08-27T06:14:32.966Z,90.82
2022-08-27T06:15:32.936Z,90.86
2022-08-27T06:16:32.895Z,90.56
2022-08-27T06:17:32.896Z,90.97
2022-08-27T06:18:32.899Z,91.22
2022-08-27T06:19:32.873Z,91.17
2022-08-27T06:20:32.864Z,91.37
2022-08-27T06:21:32.860Z,91.77
2022-08-27T06:22:33.021Z,91.97
2022-08-27T06:23:32.851Z,91.57
2022-08-27T06:24:32.825Z,91.83
2022-08-27T06:25:32.810Z,91.83
2022-08-27T06:26:32.804Z,91.77
2022-08-27T06:27:32.797Z,91.83
2022-08-27T06:28:32.795Z,91.72
2022-08-27T06:29:32.777Z,92.03
2022-08-27T06:30:32.760Z,91.93
2022-08-27T06:31:32.786Z,91.93
2022-08-27T06:32:32.741Z,91.93
2022-08-27T06:33:33.020Z,92.03
2022-08-27T06:34:32.801Z,92.57
2022-08-27T06:35:34.086Z,92.17
2022-08-27T06:36:32.702Z,91.97
2022-08-27T06:37:32.702Z,92.88
2022-08-27T06:38:32.699Z,92.68
2022-08-27T06:39:32.686Z,92.88
2022-08-27T06:40:32.722Z,92.77
2022-08-27T06:41:32.656Z,92.27
2022-08-27T06:42:32.645Z,92.17
2022-08-27T06:43:32.659Z,92.27
2022-08-27T06:44:32.618Z,92.68
2022-08-27T06:45:32.728Z,92.27
2022-08-27T06:46:32.726Z,92.37
2022-08-27T06:47:32.600Z,92.82
2022-08-27T06:48:32.600Z,92.68
2022-08-27T06:49:32.579Z,92.57
2022-08-27T06:50:32.566Z,92.47
2022-08-27T06:51:32.561Z,91.77
2022-08-27T06:52:32.549Z,92.17
2022-08-27T06:53:32.554Z,91.97
2022-08-27T06:54:32.528Z,91.77
2022-08-27T06:55:36.748Z,91.67
2022-08-27T06:56:32.518Z,92.22
2022-08-27T06:57:32.508Z,92.27
2022-08-27T06:58:32.505Z,91.87
2022-08-27T06:59:32.482Z,91.82
2022-08-27T07:00:32.470Z,92.02
2022-08-27T07:01:32.526Z,91.97
2022-08-27T07:02:32.525Z,91.67
2022-08-27T07:03:32.458Z,91.97
2022-08-27T07:04:32.989Z,92.17
2022-08-27T07:05:32.429Z,92.17
2022-08-27T07:06:32.414Z,91.93
2022-08-27T07:07:38.160Z,90.86
2022-08-27T07:08:33.410Z,91.27
2022-08-27T07:09:32.418Z,91.27
2022-08-27T07:10:32.376Z,91.67
2022-08-27T07:11:32.371Z,91.37
2022-08-27T07:12:32.353Z,91.17
2022-08-27T07:13:32.364Z,90.97
2022-08-27T07:14:37.094Z,90.77
2022-08-27T07:15:33.367Z,90.86
2022-08-27T07:16:32.327Z,90.97
2022-08-27T07:17:32.315Z,90.46
2022-08-27T07:18:32.317Z,90.66
2022-08-27T07:19:32.363Z,90.97
2022-08-27T07:20:32.282Z,90.86
2022-08-27T07:21:32.293Z,91.06
2022-08-27T07:22:32.257Z,91.06
2022-08-27T07:23:32.270Z,91.27
2022-08-27T07:24:32.246Z,91.52
2022-08-27T07:25:32.237Z,90.86
2022-08-27T07:26:32.222Z,90.77
2022-08-27T07:27:32.217Z,90.66
2022-08-27T07:28:32.211Z,90.66
2022-08-27T07:29:32.476Z,90.36
2022-08-27T07:30:32.209Z,90.26
2022-08-27T07:31:32.174Z,90.82
2022-08-27T07:32:32.167Z,90.32
2022-08-27T07:33:32.182Z,90.02
2022-08-27T07:34:32.149Z,89.22
2022-08-27T07:35:32.140Z,90.12
2022-08-27T07:36:32.125Z,90.12
2022-08-27T07:37:32.592Z,90.02
2022-08-27T07:38:32.129Z,89.36
2022-08-27T07:39:32.150Z,90.02
2022-08-27T07:40:32.131Z,89.82
2022-08-27T07:41:32.246Z,89.82
2022-08-27T07:42:32.069Z,90.06
2022-08-27T07:43:32.064Z,89.82
2022-08-27T07:44:34.512Z,89.72
2022-08-27T07:45:32.039Z,89.72
2022-08-27T07:46:32.029Z,90.17
2022-08-27T07:47:32.027Z,89.98
2022-08-27T07:48:32.009Z,89.37
2022-08-27T07:49:32.014Z,89.53
2022-08-27T07:50:32.064Z,88.12
2022-08-27T07:51:31.983Z,88.43
2022-08-27T07:52:31.972Z,87.62
2022-08-27T07:53:31.961Z,88.32
2022-08-27T07:54:31.964Z,88.63
2022-08-27T07:55:31.944Z,88.32
2022-08-27T07:56:31.924Z,87.52
2022-08-27T07:57:31.979Z,87.32
2022-08-27T07:58:31.909Z,87.62
2022-08-27T07:59:31.926Z,88.37
2022-08-27T08:00:31.898Z,87.93
2022-08-27T08:01:31.950Z,87.42
2022-08-27T08:02:32.099Z,87.52
2022-08-27T08:03:31.868Z,87.32
2022-08-27T08:04:31.866Z,88.32
2022-08-27T08:05:31.853Z,88.02
2022-08-27T08:06:31.833Z,88.23
2022-08-27T08:07:31.829Z,87.62
2022-08-27T08:08:31.826Z,88.02
2022-08-27T08:09:31.824Z,87.78
2022-08-27T08:10:35.399Z,87.38
2022-08-27T08:11:31.792Z,87.28
2022-08-27T08:12:31.780Z,87.58
2022-08-27T08:13:31.774Z,86.88
2022-08-27T08:14:31.775Z,86.48
2022-08-27T08:15:31.752Z,86.68
2022-08-27T08:16:31.964Z,86.72
2022-08-27T08:17:31.765Z,86.72
2022-08-27T08:18:31.720Z,86.72
2022-08-27T08:19:32.120Z,86.32
2022-08-27T08:20:56.465Z,86.12
2022-08-27T08:21:32.693Z,86.68
2022-08-27T08:22:31.679Z,86.58
2022-08-27T08:23:31.677Z,86.58
2022-08-27T08:24:31.677Z,86.28
2022-08-27T08:25:35.511Z,85.78
2022-08-27T08:26:32.646Z,85.58
2022-08-27T08:27:31.641Z,85.58
2022-08-27T08:28:31.623Z,85.97
2022-08-27T08:29:31.628Z,86.18
2022-08-27T08:30:35.547Z,86.18
2022-08-27T08:31:31.592Z,85.88
2022-08-27T08:32:31.584Z,86.48
2022-08-27T08:33:31.656Z,86.74
2022-08-27T08:34:31.576Z,86.50
2022-08-27T08:35:33.672Z,85.35
2022-08-27T08:36:31.543Z,84.21
2022-08-27T08:37:31.590Z,84.21
2022-08-27T08:38:31.526Z,83.11
2022-08-27T08:39:31.536Z,83.77
2022-08-27T08:40:31.541Z,82.77
2022-08-27T08:41:31.497Z,83.07
2022-08-27T08:42:31.490Z,83.21
2022-08-27T08:43:31.481Z,82.67
2022-08-27T08:44:31.488Z,82.47
2022-08-27T08:45:31.461Z,83.47
2022-08-27T08:46:31.492Z,82.67
2022-08-27T08:47:31.446Z,82.81
2022-08-27T08:48:31.424Z,82.51
2022-08-27T08:49:31.420Z,82.61
2022-08-27T08:50:31.504Z,83.01
2022-08-27T08:51:31.405Z,82.71
2022-08-27T08:52:32.067Z,82.01
2022-08-27T08:53:31.385Z,82.81
2022-08-27T08:54:31.371Z,82.71
2022-08-27T08:55:31.383Z,82.91
2022-08-27T08:56:31.352Z,83.41
2022-08-27T08:57:31.351Z,82.67
2022-08-27T08:58:31.333Z,81.30
2022-08-27T08:59:31.334Z,82.51
2022-08-27T09:00:31.330Z,81.67
2022-08-27T09:01:31.391Z,81.27
2022-08-27T09:02:31.297Z,80.36
2022-08-27T09:03:31.345Z,80.27
2022-08-27T09:04:31.280Z,80.67
2022-08-27T09:05:31.291Z,79.47
2022-08-27T09:06:31.260Z,80.17
2022-08-27T09:07:31.256Z,80.27
2022-08-27T09:08:36.424Z,79.67
2022-08-27T09:09:32.233Z,79.36
2022-08-27T09:10:31.237Z,79.57
2022-08-27T09:11:31.210Z,79.47
2022-08-27T09:12:32.047Z,79.17
2022-08-27T09:13:31.195Z,79.06
2022-08-27T09:14:31.192Z,80.27
2022-08-27T09:15:31.193Z,80.67
2022-08-27T09:16:31.252Z,80.91
2022-08-27T09:17:31.158Z,80.77
2022-08-27T09:18:31.149Z,80.17
2022-08-27T09:19:31.140Z,80.47
2022-08-27T09:20:31.164Z,79.73
2022-08-27T09:21:31.129Z,79.13
2022-08-27T09:22:31.165Z,79.83
2022-08-27T09:23:31.103Z,79.73
2022-08-27T09:24:31.166Z,79.23
2022-08-27T09:25:31.273Z,79.63
2022-08-27T09:26:31.081Z,79.59
2022-08-27T09:27:31.138Z,78.79
2022-08-27T09:28:31.068Z,77.49
2022-08-27T09:29:31.041Z,78.79
2022-08-27T09:30:31.165Z,78.29
2022-08-27T09:31:31.026Z,77.89
2022-08-27T09:32:31.017Z,77.39
2022-08-27T09:33:44.501Z,77.69
2022-08-27T09:34:32.009Z,78.29
2022-08-27T09:35:31.001Z,77.49
2022-08-27T09:36:31.017Z,77.49
2022-08-27T09:37:34.192Z,78.29
2022-08-27T09:38:33.600Z,77.49
2022-08-27T09:39:30.946Z,77.99
2022-08-27T09:40:30.992Z,78.89
2022-08-27T09:41:30.929Z,78.79
2022-08-27T09:42:30.918Z,78.33
2022-08-27T09:43:30.971Z,77.49
2022-08-27T09:44:30.900Z,77.49
2022-08-27T09:45:30.974Z,77.69
2022-08-27T09:46:30.887Z,77.95
2022-08-27T09:47:30.867Z,77.45
2022-08-27T09:48:30.858Z,76.22
2022-08-27T09:49:30.837Z,76.48
2022-08-27T09:50:30.849Z,76.15
2022-08-27T09:51:30.826Z,75.41
2022-08-27T09:52:30.819Z,74.21
2022-08-27T09:53:30.802Z,73.38
2022-08-27T09:54:30.803Z,73.78
2022-08-27T09:55:30.804Z,73.94
2022-08-27T09:56:30.782Z,73.55
2022-08-27T09:57:30.876Z,72.65
2022-08-27T09:58:30.760Z,72.65
2022-08-27T09:59:30.779Z,72.65
2022-08-27T10:00:30.758Z,72.02
2022-08-27T10:01:30.825Z,71.81
2022-08-27T10:02:30.718Z,71.72
2022-08-27T10:03:33.453Z,69.99
2022-08-27T10:04:30.787Z,71.42
2022-08-27T10:05:30.702Z,72.22
2022-08-27T10:06:30.681Z,71.62
2022-08-27T10:07:30.666Z,71.12
2022-08-27T10:08:30.667Z,71.19
2022-08-27T10:09:30.646Z,70.32
2022-08-27T10:10:30.704Z,71.19
2022-08-27T10:11:30.631Z,71.58
2022-08-27T10:12:30.623Z,69.89
2022-08-27T10:13:30.618Z,69.39
2022-08-27T10:14:30.610Z,69.09
2022-08-27T10:15:30.597Z,69.82
2022-08-27T10:16:31.660Z,69.73
2022-08-27T10:17:30.573Z,69.86
2022-08-27T10:18:30.559Z,69.96
2022-08-27T10:19:30.549Z,70.26
2022-08-27T10:20:31.005Z,69.46
2022-08-27T10:21:30.569Z,69.66
2022-08-27T10:22:30.540Z,69.46
2022-08-27T10:23:30.510Z,70.79
2022-08-27T10:24:30.525Z,71.39
2022-08-27T10:25:30.492Z,71.29
2022-08-27T10:26:33.713Z,70.79
2022-08-27T10:27:30.478Z,71.39
2022-08-27T10:28:30.469Z,71.89
2022-08-27T10:29:30.449Z,71.39
2022-08-27T10:30:31.957Z,71.19
2022-08-27T10:31:30.507Z,71.19
2022-08-27T10:32:30.442Z,71.98
2022-08-27T10:33:30.412Z,71.48
2022-08-27T10:34:30.406Z,71.59
2022-08-27T10:35:30.397Z,71.29
2022-08-27T10:36:30.400Z,71.39
2022-08-27T10:37:36.603Z,70.53
2022-08-27T10:38:31.372Z,71.72
2022-08-27T10:39:30.393Z,72.02
2022-08-27T10:40:30.393Z,71.22
2022-08-27T10:41:30.342Z,71.22
2022-08-27T10:42:30.324Z,72.16
2022-08-27T10:43:30.322Z,72.22
2022-08-27T10:44:30.302Z,71.32
2022-08-27T10:45:31.433Z,72.32
2022-08-27T10:46:30.382Z,72.25
2022-08-27T10:47:30.281Z,71.15
2022-08-27T10:48:30.268Z,72.65
2022-08-27T10:49:30.254Z,71.89
2022-08-27T10:50:30.247Z,72.35
2022-08-27T10:51:30.303Z,71.89
2022-08-27T10:52:30.379Z,71.56
2022-08-27T10:53:30.388Z,72.35
2022-08-27T10:54:30.365Z,71.66
2022-08-27T10:55:30.339Z,71.56
2022-08-27T10:56:30.339Z,71.36
2022-08-27T10:57:51.663Z,71.66
2022-08-27T10:58:31.229Z,71.06
2022-08-27T10:59:30.366Z,71.75
2022-08-27T11:00:30.240Z,72.02
2022-08-27T11:01:30.259Z,71.62
2022-08-27T11:02:30.258Z,71.36
2022-08-27T11:03:33.342Z,69.92
2022-08-27T11:04:30.177Z,70.42
2022-08-27T11:05:30.156Z,70.83
2022-08-27T11:06:30.163Z,70.72
2022-08-27T11:07:30.074Z,71.52
2022-08-27T11:08:30.068Z,71.42
2022-08-27T11:09:30.063Z,71.72
2022-08-27T11:10:30.071Z,71.32
2022-08-27T11:12:12.353Z,70.72
2022-08-27T11:12:31.032Z,71.42
2022-08-27T11:13:30.015Z,71.06
2022-08-27T11:14:30.008Z,71.72
2022-08-27T11:15:29.998Z,71.42
2022-08-27T11:16:30.029Z,71.22
2022-08-27T11:17:32.208Z,71.12
2022-08-27T11:18:29.995Z,71.02
2022-08-27T11:19:29.961Z,70.62
2022-08-27T11:20:29.954Z,72.32
2022-08-27T11:21:29.954Z,71.22
2022-08-27T11:22:29.931Z,70.62
2022-08-27T11:23:29.927Z,71.45
2022-08-27T11:24:34.379Z,71.15
2022-08-27T11:25:30.895Z,71.89
2022-08-27T11:26:29.994Z,72.39
2022-08-27T11:27:29.879Z,72.09
2022-08-27T11:28:30.418Z,72.78
2022-08-27T11:29:30.583Z,72.13
2022-08-27T11:30:29.883Z,73.62
2022-08-27T11:31:29.924Z,72.92
2022-08-27T11:32:29.841Z,73.12
2022-08-27T11:33:29.823Z,73.72
2022-08-27T11:34:29.864Z,73.72
2022-08-27T11:35:29.834Z,72.82
2022-08-27T11:36:29.819Z,73.02
2022-08-27T11:37:29.789Z,73.42
2022-08-27T11:38:29.777Z,72.42
2022-08-27T11:39:29.767Z,73.42
2022-08-27T11:40:29.796Z,73.12
2022-08-27T11:41:29.765Z,73.56
2022-08-27T11:42:30.743Z,73.72
2022-08-27T11:43:29.732Z,73.82
2022-08-27T11:44:29.719Z,72.82
2022-08-27T11:45:29.713Z,71.92
2022-08-27T11:46:29.740Z,72.99
2022-08-27T11:47:29.694Z,72.99
2022-08-27T11:48:29.711Z,71.86
2022-08-27T11:49:29.673Z,71.75
2022-08-27T11:50:29.669Z,71.02
2022-08-27T11:51:29.669Z,71.22
2022-08-27T11:52:29.643Z,70.53
2022-08-27T11:53:29.632Z,69.82
2022-08-27T11:54:29.620Z,70.23
2022-08-27T11:55:29.607Z,70.12
2022-08-27T11:56:29.615Z,70.62
2022-08-27T11:57:29.637Z,69.43
2022-08-27T11:58:29.580Z,69.59
2022-08-27T11:59:29.570Z,70.32
2022-08-27T12:00:29.565Z,70.12
2022-08-27T12:01:29.559Z,70.23
2022-08-27T12:02:29.577Z,69.99
2022-08-27T12:03:29.556Z,69.59
2022-08-27T12:04:29.554Z,70.09
2022-08-27T12:05:29.508Z,70.09
2022-08-27T12:06:29.517Z,69.89
2022-08-27T12:07:29.490Z,70.59
2022-08-27T12:08:29.486Z,69.76
2022-08-27T12:09:29.466Z,69.99
2022-08-27T12:10:29.463Z,69.89
2022-08-27T12:11:29.462Z,69.56
2022-08-27T12:12:29.443Z,68.99
2022-08-27T12:13:29.434Z,69.89
2022-08-27T12:14:29.425Z,69.39
2022-08-27T12:15:33.229Z,69.79
2022-08-27T12:16:30.454Z,69.09
2022-08-27T12:17:29.388Z,69.49
2022-08-27T12:18:29.385Z,68.96
2022-08-27T12:19:29.380Z,68.66
2022-08-27T12:20:29.367Z,67.96
2022-08-27T12:21:29.367Z,68.63
2022-08-27T12:22:29.346Z,67.77
2022-08-27T12:23:29.335Z,67.83
2022-08-27T12:24:29.329Z,66.77
2022-08-27T12:25:29.312Z,67.33
2022-08-27T12:26:29.314Z,66.97
2022-08-27T12:27:29.295Z,67.36
2022-08-27T12:28:29.288Z,67.93
2022-08-27T12:29:29.322Z,67.47
2022-08-27T12:30:29.267Z,66.87
2022-08-27T12:31:29.311Z,67.17
2022-08-27T12:32:29.251Z,67.13
2022-08-27T12:33:29.245Z,67.13
2022-08-27T12:34:29.335Z,67.24
2022-08-27T12:35:29.326Z,66.64
2022-08-27T12:36:29.387Z,67.13
2022-08-27T12:37:29.338Z,66.44
2022-08-27T12:38:29.274Z,66.50
2022-08-27T12:39:29.385Z,66.71
2022-08-27T12:40:29.258Z,66.20
2022-08-27T12:41:29.182Z,66.31
2022-08-27T12:42:29.159Z,66.80
2022-08-27T12:43:29.146Z,66.14
2022-08-27T12:44:29.146Z,67.43
2022-08-27T12:45:29.135Z,67.20
2022-08-27T12:46:29.799Z,65.81
2022-08-27T12:47:29.107Z,65.68
2022-08-27T12:48:29.109Z,66.97
2022-08-27T12:49:38.363Z,65.38
2022-08-27T12:50:30.161Z,65.58
2022-08-27T12:51:29.089Z,64.95
2022-08-27T12:52:29.100Z,65.55